sensor_id;sensor_type;location;lat;lon;timestamp;pressure;altitude;pressure_sealevel;temperature;humidity
65534;BME280;53640;55.838;37.184;2023-09-30T00:02:26;99546.50;;;14.04;48.63
65534;BME280;53640;55.838;37.184;2023-09-30T00:04:52;99547.31;;;14.04;48.71
65534;BME280;53640;55.838;37.184;2023-09-30T00:07:19;99518.78;;;13.83;48.62
65534;BME280;53640;55.838;37.184;2023-09-30T00:09:45;99547.19;;;13.99;48.87
65534;BME280;53640;55.838;37.184;2023-09-30T00:12:11;99551.94;;;13.92;48.26
65534;BME280;53640;55.838;37.184;2023-09-30T00:14:38;99518.16;;;13.69;48.87
65534;BME280;53640;55.838;37.184;2023-09-30T00:17:05;99546.00;;;13.83;48.73
65534;BME280;53640;55.838;37.184;2023-09-30T00:19:31;99540.34;;;13.85;48.84
65534;BME280;53640;55.838;37.184;2023-09-30T00:21:59;99521.94;;;13.68;48.94
65534;BME280;53640;55.838;37.184;2023-09-30T00:24:26;99521.44;;;13.60;48.82
65534;BME280;53640;55.838;37.184;2023-09-30T00:26:53;99518.72;;;13.60;49.28
65534;BME280;53640;55.838;37.184;2023-09-30T00:29:20;99539.72;;;13.71;49.59
65534;BME280;53640;55.838;37.184;2023-09-30T00:31:47;99466.19;;;13.24;49.47
65534;BME280;53640;55.838;37.184;2023-09-30T00:34:15;99514.34;;;13.59;49.16
65534;BME280;53640;55.838;37.184;2023-09-30T00:36:42;99536.84;;;13.66;49.17
65534;BME280;53640;55.838;37.184;2023-09-30T00:39:08;99545.38;;;13.69;49.32
65534;BME280;53640;55.838;37.184;2023-09-30T00:41:36;99513.25;;;13.48;49.41
65534;BME280;53640;55.838;37.184;2023-09-30T00:44:04;99540.59;;;13.65;49.64
65534;BME280;53640;55.838;37.184;2023-09-30T00:46:32;99539.19;;;13.62;49.41
65534;BME280;53640;55.838;37.184;2023-09-30T00:48:59;99488.97;;;13.23;49.56
65534;BME280;53640;55.838;37.184;2023-09-30T00:51:28;99536.56;;;13.56;49.87
65534;BME280;53640;55.838;37.184;2023-09-30T00:53:58;99503.28;;;13.30;49.84
65534;BME280;53640;55.838;37.184;2023-09-30T00:56:27;99514.78;;;13.32;49.58
65534;BME280;53640;55.838;37.184;2023-09-30T00:58:54;99514.16;;;13.30;49.54
65534;BME280;53640;55.838;37.184;2023-09-30T01:01:21;99490.94;;;13.16;49.62
65534;BME280;53640;55.838;37.184;2023-09-30T01:03:48;99471.31;;;13.02;49.86
65534;BME280;53640;55.838;37.184;2023-09-30T01:06:15;99528.13;;;13.34;49.73
65534;BME280;53640;55.838;37.184;2023-09-30T01:08:41;99528.56;;;13.31;49.92
65534;BME280;53640;55.838;37.184;2023-09-30T01:11:08;99493.16;;;13.07;50.00
65534;BME280;53640;55.838;37.184;2023-09-30T01:13:37;99498.22;;;13.04;50.23
65534;BME280;53640;55.838;37.184;2023-09-30T01:16:05;99535.09;;;13.30;49.99
65534;BME280;53640;55.838;37.184;2023-09-30T01:18:32;99500.03;;;13.10;50.07
65534;BME280;53640;55.838;37.184;2023-09-30T01:21:03;99515.91;;;13.13;50.47
65534;BME280;53640;55.838;37.184;2023-09-30T01:23:31;99506.25;;;12.99;50.31
65534;BME280;53640;55.838;37.184;2023-09-30T01:26:02;99519.53;;;13.07;50.54
65534;BME280;53640;55.838;37.184;2023-09-30T01:28:29;99502.34;;;12.94;50.31
65534;BME280;53640;55.838;37.184;2023-09-30T01:30:57;99527.59;;;13.13;50.46
65534;BME280;53640;55.838;37.184;2023-09-30T01:33:24;99526.47;;;13.03;50.49
65534;BME280;53640;55.838;37.184;2023-09-30T01:35:51;99531.22;;;13.07;50.68
65534;BME280;53640;55.838;37.184;2023-09-30T01:38:17;99535.69;;;13.02;50.79
65534;BME280;53640;55.838;37.184;2023-09-30T01:40:44;99497.53;;;12.78;50.75
65534;BME280;53640;55.838;37.184;2023-09-30T01:43:10;99468.56;;;12.54;50.98
65534;BME280;53640;55.838;37.184;2023-09-30T01:45:40;99512.31;;;12.82;50.77
65534;BME280;53640;55.838;37.184;2023-09-30T01:48:07;99503.03;;;12.71;51.22
65534;BME280;53640;55.838;37.184;2023-09-30T01:50:40;99494.97;;;12.65;51.18
65534;BME280;53640;55.838;37.184;2023-09-30T01:53:07;99523.41;;;12.81;51.23
65534;BME280;53640;55.838;37.184;2023-09-30T01:55:34;99530.50;;;12.82;51.12
65534;BME280;53640;55.838;37.184;2023-09-30T01:58:00;99428.03;;;12.22;51.38
65534;BME280;53640;55.838;37.184;2023-09-30T02:00:28;99502.50;;;12.63;51.35
65534;BME280;53640;55.838;37.184;2023-09-30T02:02:55;99519.53;;;12.70;51.48
65534;BME280;53640;55.838;37.184;2023-09-30T02:05:22;99482.22;;;12.47;51.38
65534;BME280;53640;55.838;37.184;2023-09-30T02:07:50;99516.44;;;12.66;51.77
65534;BME280;53640;55.838;37.184;2023-09-30T02:10:18;99459.69;;;12.28;51.65
65534;BME280;53640;55.838;37.184;2023-09-30T02:12:46;99486.00;;;12.46;51.74
65534;BME280;53640;55.838;37.184;2023-09-30T02:15:14;99502.38;;;12.58;51.52
65534;BME280;53640;55.838;37.184;2023-09-30T02:17:41;99506.34;;;12.55;51.86
65534;BME280;53640;55.838;37.184;2023-09-30T02:20:12;99492.47;;;12.45;51.60
65534;BME280;53640;55.838;37.184;2023-09-30T02:22:42;99478.84;;;12.33;51.52
65534;BME280;53640;55.838;37.184;2023-09-30T02:25:10;99504.19;;;12.45;51.74
65534;BME280;53640;55.838;37.184;2023-09-30T02:27:41;99492.13;;;12.41;51.82
65534;BME280;53640;55.838;37.184;2023-09-30T02:30:12;99507.88;;;12.51;51.68
65534;BME280;53640;55.838;37.184;2023-09-30T02:32:40;99469.72;;;12.28;51.44
65534;BME280;53640;55.838;37.184;2023-09-30T02:35:08;99497.56;;;12.41;51.64
65534;BME280;53640;55.838;37.184;2023-09-30T02:37:37;99466.50;;;12.19;51.67
65534;BME280;53640;55.838;37.184;2023-09-30T02:40:05;99499.88;;;12.38;51.47
65534;BME280;53640;55.838;37.184;2023-09-30T02:42:36;99511.47;;;12.45;51.68
65534;BME280;53640;55.838;37.184;2023-09-30T02:45:08;99506.72;;;12.40;51.85
65534;BME280;53640;55.838;37.184;2023-09-30T02:47:35;99501.75;;;12.37;51.74
65534;BME280;53640;55.838;37.184;2023-09-30T02:50:01;99500.09;;;12.36;51.69
65534;BME280;53640;55.838;37.184;2023-09-30T02:52:31;99455.09;;;12.10;51.95
65534;BME280;53640;55.838;37.184;2023-09-30T02:54:58;99482.53;;;12.20;52.00
65534;BME280;53640;55.838;37.184;2023-09-30T02:57:27;99480.25;;;12.17;51.95
65534;BME280;53640;55.838;37.184;2023-09-30T02:59:54;99464.91;;;12.11;52.11
65534;BME280;53640;55.838;37.184;2023-09-30T03:02:20;99464.03;;;12.11;51.84
65534;BME280;53640;55.838;37.184;2023-09-30T03:04:50;99467.69;;;12.05;52.22
65534;BME280;53640;55.838;37.184;2023-09-30T03:07:18;99454.41;;;11.96;52.16
65534;BME280;53640;55.838;37.184;2023-09-30T03:09:46;99484.88;;;12.17;51.97
65534;BME280;53640;55.838;37.184;2023-09-30T03:12:13;99451.75;;;11.90;52.31
65534;BME280;53640;55.838;37.184;2023-09-30T03:14:40;99489.09;;;12.13;52.14
65534;BME280;53640;55.838;37.184;2023-09-30T03:17:07;99490.16;;;12.12;52.41
65534;BME280;53640;55.838;37.184;2023-09-30T03:19:38;99489.53;;;12.10;52.42
65534;BME280;53640;55.838;37.184;2023-09-30T03:22:06;99415.06;;;11.62;52.31
65534;BME280;53640;55.838;37.184;2023-09-30T03:24:40;99490.22;;;12.05;52.57
65534;BME280;53640;55.838;37.184;2023-09-30T03:27:07;99394.63;;;11.41;52.72
65534;BME280;53640;55.838;37.184;2023-09-30T03:29:37;99436.53;;;11.64;52.78
65534;BME280;53640;55.838;37.184;2023-09-30T03:32:04;99447.16;;;11.65;52.87
65534;BME280;53640;55.838;37.184;2023-09-30T03:34:31;99471.69;;;11.77;52.94
65534;BME280;53640;55.838;37.184;2023-09-30T03:36:57;99473.16;;;11.73;53.13
65534;BME280;53640;55.838;37.184;2023-09-30T03:39:27;99446.00;;;11.55;53.45
65534;BME280;53640;55.838;37.184;2023-09-30T03:41:56;99463.44;;;11.65;53.56
65534;BME280;53640;55.838;37.184;2023-09-30T03:44:24;99481.28;;;11.73;53.51
65534;BME280;53640;55.838;37.184;2023-09-30T03:46:51;99447.97;;;11.47;53.81
65534;BME280;53640;55.838;37.184;2023-09-30T03:49:19;99475.56;;;11.63;53.74
65534;BME280;53640;55.838;37.184;2023-09-30T03:51:48;99484.91;;;11.67;53.48
65534;BME280;53640;55.838;37.184;2023-09-30T03:54:17;99455.47;;;11.45;54.08
65534;BME280;53640;55.838;37.184;2023-09-30T03:56:47;99455.25;;;11.47;53.74
65534;BME280;53640;55.838;37.184;2023-09-30T03:59:14;99447.09;;;11.47;53.74
65534;BME280;53640;55.838;37.184;2023-09-30T04:01:42;99477.22;;;11.64;53.92
65534;BME280;53640;55.838;37.184;2023-09-30T04:04:08;99472.63;;;11.64;54.15
65534;BME280;53640;55.838;37.184;2023-09-30T04:06:36;99460.19;;;11.57;54.09
65534;BME280;53640;55.838;37.184;2023-09-30T04:09:06;99480.75;;;11.64;54.35
65534;BME280;53640;55.838;37.184;2023-09-30T04:11:39;99484.69;;;11.68;54.27
65534;BME280;53640;55.838;37.184;2023-09-30T04:14:06;99387.16;;;11.12;54.50
65534;BME280;53640;55.838;37.184;2023-09-30T04:16:34;99461.81;;;11.58;54.37
65534;BME280;53640;55.838;37.184;2023-09-30T04:19:01;99485.06;;;11.72;54.34
65534;BME280;53640;55.838;37.184;2023-09-30T04:21:28;99486.53;;;11.74;54.64
65534;BME280;53640;55.838;37.184;2023-09-30T04:23:56;99487.78;;;11.72;54.60
65534;BME280;53640;55.838;37.184;2023-09-30T04:26:23;99472.19;;;11.67;54.33
65534;BME280;53640;55.838;37.184;2023-09-30T04:28:51;99429.88;;;11.41;54.37
65534;BME280;53640;55.838;37.184;2023-09-30T04:31:19;99496.97;;;11.78;54.48
65534;BME280;53640;55.838;37.184;2023-09-30T04:33:48;99493.19;;;11.79;54.31
65534;BME280;53640;55.838;37.184;2023-09-30T04:36:17;99490.84;;;11.82;54.46
65534;BME280;53640;55.838;37.184;2023-09-30T04:38:43;99487.69;;;11.85;54.54
65534;BME280;53640;55.838;37.184;2023-09-30T04:41:09;99488.28;;;11.87;54.31
65534;BME280;53640;55.838;37.184;2023-09-30T04:43:35;99487.03;;;11.90;54.72
65534;BME280;53640;55.838;37.184;2023-09-30T04:46:05;99457.53;;;11.75;54.41
65534;BME280;53640;55.838;37.184;2023-09-30T04:48:33;99469.75;;;11.84;54.68
65534;BME280;53640;55.838;37.184;2023-09-30T04:51:00;99381.91;;;11.42;54.68
65534;BME280;53640;55.838;37.184;2023-09-30T04:53:26;99443.84;;;11.88;54.73
65534;BME280;53640;55.838;37.184;2023-09-30T04:55:52;99488.03;;;12.14;54.63
65534;BME280;53640;55.838;37.184;2023-09-30T04:58:19;99487.72;;;12.22;54.67
65534;BME280;53640;55.838;37.184;2023-09-30T05:00:45;99471.22;;;12.23;54.40
65534;BME280;53640;55.838;37.184;2023-09-30T05:03:11;99490.69;;;12.39;54.38
65534;BME280;53640;55.838;37.184;2023-09-30T05:05:37;99454.63;;;12.32;54.27
65534;BME280;53640;55.838;37.184;2023-09-30T05:08:05;99433.38;;;12.29;54.12
65534;BME280;53640;55.838;37.184;2023-09-30T05:10:32;99479.13;;;12.62;54.19
65534;BME280;53640;55.838;37.184;2023-09-30T05:12:59;99421.16;;;12.38;53.99
65534;BME280;53640;55.838;37.184;2023-09-30T05:15:25;99439.97;;;12.69;53.71
65534;BME280;53640;55.838;37.184;2023-09-30T05:17:52;99480.03;;;13.04;53.26
65534;BME280;53640;55.838;37.184;2023-09-30T05:20:19;99467.88;;;13.07;53.06
65534;BME280;53640;55.838;37.184;2023-09-30T05:22:47;99464.13;;;13.19;52.93
65534;BME280;53640;55.838;37.184;2023-09-30T05:25:16;99471.50;;;13.42;52.84
65534;BME280;53640;55.838;37.184;2023-09-30T05:27:43;99460.88;;;13.53;52.59
65534;BME280;53640;55.838;37.184;2023-09-30T05:30:10;99416.41;;;13.35;52.22
65534;BME280;53640;55.838;37.184;2023-09-30T05:32:42;99464.25;;;13.78;52.15
65534;BME280;53640;55.838;37.184;2023-09-30T05:35:09;99437.25;;;13.77;51.71
65534;BME280;53640;55.838;37.184;2023-09-30T05:37:43;99462.34;;;14.02;51.55
65534;BME280;53640;55.838;37.184;2023-09-30T05:40:11;99466.22;;;14.18;51.52
65534;BME280;53640;55.838;37.184;2023-09-30T05:42:58;99456.75;;;14.21;50.97
65534;BME280;53640;55.838;37.184;2023-09-30T05:45:27;99419.13;;;14.06;51.10
65534;BME280;53640;55.838;37.184;2023-09-30T05:47:54;99441.94;;;14.28;51.08
65534;BME280;53640;55.838;37.184;2023-09-30T05:50:23;99435.06;;;14.37;50.71
65534;BME280;53640;55.838;37.184;2023-09-30T05:52:54;99412.00;;;14.28;50.47
65534;BME280;53640;55.838;37.184;2023-09-30T05:55:22;99445.53;;;14.57;50.42
65534;BME280;53640;55.838;37.184;2023-09-30T05:57:49;99458.66;;;14.72;50.42
65534;BME280;53640;55.838;37.184;2023-09-30T06:00:17;99417.47;;;14.57;50.34
65534;BME280;53640;55.838;37.184;2023-09-30T06:02:51;99454.34;;;14.88;50.06
65534;BME280;53640;55.838;37.184;2023-09-30T06:05:18;99451.22;;;14.96;49.80
65534;BME280;53640;55.838;37.184;2023-09-30T06:07:46;99443.72;;;15.03;49.81
65534;BME280;53640;55.838;37.184;2023-09-30T06:10:12;99445.81;;;15.13;49.75
65534;BME280;53640;55.838;37.184;2023-09-30T06:12:42;99443.81;;;15.25;49.65
65534;BME280;53640;55.838;37.184;2023-09-30T06:15:09;99441.34;;;15.41;49.60
65534;BME280;53640;55.838;37.184;2023-09-30T06:17:36;99399.94;;;15.27;49.13
65534;BME280;53640;55.838;37.184;2023-09-30T06:20:06;99436.06;;;15.68;49.22
65534;BME280;53640;55.838;37.184;2023-09-30T06:22:35;99446.50;;;15.88;48.71
65534;BME280;53640;55.838;37.184;2023-09-30T06:25:02;99435.69;;;15.98;48.67
65534;BME280;53640;55.838;37.184;2023-09-30T06:27:30;99435.25;;;16.06;47.78
65534;BME280;53640;55.838;37.184;2023-09-30T06:29:57;99438.50;;;16.25;47.59
65534;BME280;53640;55.838;37.184;2023-09-30T06:32:23;99429.66;;;16.34;47.24
65534;BME280;53640;55.838;37.184;2023-09-30T06:34:50;99388.22;;;16.21;47.20
65534;BME280;53640;55.838;37.184;2023-09-30T06:37:16;99405.97;;;16.40;47.28
65534;BME280;53640;55.838;37.184;2023-09-30T06:39:44;99425.69;;;16.69;47.14
65534;BME280;53640;55.838;37.184;2023-09-30T06:42:10;99415.06;;;16.73;46.64
65534;BME280;53640;55.838;37.184;2023-09-30T06:44:36;99365.47;;;16.59;46.66
65534;BME280;53640;55.838;37.184;2023-09-30T06:47:03;99372.78;;;16.80;46.12
65534;BME280;53640;55.838;37.184;2023-09-30T06:49:33;99409.47;;;17.12;46.02
65534;BME280;53640;55.838;37.184;2023-09-30T06:52:00;99376.03;;;17.04;45.23
65534;BME280;53640;55.838;37.184;2023-09-30T06:54:27;99402.91;;;17.45;45.39
65534;BME280;53640;55.838;37.184;2023-09-30T06:56:54;99386.44;;;17.40;45.36
65534;BME280;53640;55.838;37.184;2023-09-30T06:59:21;99410.75;;;17.68;44.54
65534;BME280;53640;55.838;37.184;2023-09-30T07:01:47;99410.28;;;17.82;44.75
65534;BME280;53640;55.838;37.184;2023-09-30T07:04:13;99399.59;;;17.80;44.19
65534;BME280;53640;55.838;37.184;2023-09-30T07:06:40;99414.75;;;17.93;44.23
65534;BME280;53640;55.838;37.184;2023-09-30T07:09:06;99362.31;;;17.74;44.62
65534;BME280;53640;55.838;37.184;2023-09-30T07:11:32;99408.00;;;18.11;43.96
65534;BME280;53640;55.838;37.184;2023-09-30T07:13:59;99397.63;;;18.18;44.09
65534;BME280;53640;55.838;37.184;2023-09-30T07:16:27;99404.75;;;18.24;43.85
65534;BME280;53640;55.838;37.184;2023-09-30T07:18:53;99374.31;;;18.15;43.95
65534;BME280;53640;55.838;37.184;2023-09-30T07:21:20;99408.44;;;18.50;43.67
65534;BME280;53640;55.838;37.184;2023-09-30T07:23:46;99377.72;;;18.48;43.17
65534;BME280;53640;55.838;37.184;2023-09-30T07:26:14;99407.44;;;18.77;42.87
65534;BME280;53640;55.838;37.184;2023-09-30T07:28:40;99360.22;;;18.64;43.03
65534;BME280;53640;55.838;37.184;2023-09-30T07:31:07;99397.88;;;19.05;42.25
65534;BME280;53640;55.838;37.184;2023-09-30T07:33:33;99374.56;;;18.97;42.42
65534;BME280;53640;55.838;37.184;2023-09-30T07:35:59;99363.84;;;19.06;42.15
65534;BME280;53640;55.838;37.184;2023-09-30T07:38:26;99377.88;;;19.19;41.75
65534;BME280;53640;55.838;37.184;2023-09-30T07:40:52;99389.66;;;19.30;41.36
65534;BME280;53640;55.838;37.184;2023-09-30T07:43:18;99367.16;;;19.28;41.46
65534;BME280;53640;55.838;37.184;2023-09-30T07:45:46;99383.09;;;19.57;41.17
65534;BME280;53640;55.838;37.184;2023-09-30T07:48:12;99356.19;;;19.54;40.82
65534;BME280;53640;55.838;37.184;2023-09-30T07:50:40;99379.22;;;19.68;39.99
65534;BME280;53640;55.838;37.184;2023-09-30T07:53:08;99379.75;;;19.80;40.27
65534;BME280;53640;55.838;37.184;2023-09-30T07:55:35;99383.28;;;19.91;39.61
65534;BME280;53640;55.838;37.184;2023-09-30T07:58:02;99387.09;;;20.00;39.73
65534;BME280;53640;55.838;37.184;2023-09-30T08:00:29;99382.66;;;20.19;39.46
65534;BME280;53640;55.838;37.184;2023-09-30T08:02:55;99383.91;;;20.42;39.21
65534;BME280;53640;55.838;37.184;2023-09-30T08:05:22;99352.84;;;20.42;38.87
65534;BME280;53640;55.838;37.184;2023-09-30T08:07:48;99376.31;;;20.79;39.07
65534;BME280;53640;55.838;37.184;2023-09-30T08:10:15;99377.31;;;20.93;37.83
65534;BME280;53640;55.838;37.184;2023-09-30T08:12:44;99366.81;;;21.00;37.14
65534;BME280;53640;55.838;37.184;2023-09-30T08:15:15;99368.94;;;21.08;36.74
65534;BME280;53640;55.838;37.184;2023-09-30T08:17:42;99359.00;;;21.12;37.04
65534;BME280;53640;55.838;37.184;2023-09-30T08:20:09;99380.25;;;21.41;36.72
65534;BME280;53640;55.838;37.184;2023-09-30T08:22:35;99360.78;;;21.61;36.60
65534;BME280;53640;55.838;37.184;2023-09-30T08:25:02;99363.34;;;21.82;35.74
65534;BME280;53640;55.838;37.184;2023-09-30T08:27:30;99356.41;;;22.08;35.59
65534;BME280;53640;55.838;37.184;2023-09-30T08:29:58;99343.44;;;22.33;34.79
65534;BME280;53640;55.838;37.184;2023-09-30T08:32:24;99341.72;;;22.56;34.06
65534;BME280;53640;55.838;37.184;2023-09-30T08:34:51;99349.88;;;22.85;33.59
65534;BME280;53640;55.838;37.184;2023-09-30T08:37:18;99356.94;;;23.10;33.61
65534;BME280;53640;55.838;37.184;2023-09-30T08:39:44;99353.94;;;23.25;32.85
65534;BME280;53640;55.838;37.184;2023-09-30T08:42:13;99356.22;;;23.37;32.62
65534;BME280;53640;55.838;37.184;2023-09-30T08:44:41;99309.31;;;23.32;32.00
65534;BME280;53640;55.838;37.184;2023-09-30T08:47:07;99269.34;;;23.43;32.12
65534;BME280;53640;55.838;37.184;2023-09-30T08:49:38;99304.88;;;23.91;30.64
65534;BME280;53640;55.838;37.184;2023-09-30T08:52:09;99330.69;;;24.28;30.51
65534;BME280;53640;55.838;37.184;2023-09-30T08:54:39;99342.72;;;24.60;30.88
65534;BME280;53640;55.838;37.184;2023-09-30T08:57:08;99318.41;;;24.70;30.11
65534;BME280;53640;55.838;37.184;2023-09-30T08:59:35;99326.16;;;25.05;29.54
65534;BME280;53640;55.838;37.184;2023-09-30T09:02:08;99327.31;;;25.26;29.40
65534;BME280;53640;55.838;37.184;2023-09-30T09:04:35;99320.72;;;25.44;28.29
65534;BME280;53640;55.838;37.184;2023-09-30T09:07:02;99323.44;;;25.67;28.36
65534;BME280;53640;55.838;37.184;2023-09-30T09:09:29;99290.78;;;25.55;28.02
65534;BME280;53640;55.838;37.184;2023-09-30T09:11:56;99300.13;;;25.68;27.97
65534;BME280;53640;55.838;37.184;2023-09-30T09:14:38;99251.34;;;25.27;27.31
65534;BME280;53640;55.838;37.184;2023-09-30T09:17:07;99321.88;;;25.83;27.48
65534;BME280;53640;55.838;37.184;2023-09-30T09:19:34;99306.22;;;25.79;27.41
65534;BME280;53640;55.838;37.184;2023-09-30T09:22:01;99317.84;;;25.89;27.34
65534;BME280;53640;55.838;37.184;2023-09-30T09:24:32;99307.28;;;26.00;27.33
65534;BME280;53640;55.838;37.184;2023-09-30T09:27:07;99304.34;;;26.05;27.02
65534;BME280;53640;55.838;37.184;2023-09-30T09:29:38;99308.44;;;26.08;26.48
65534;BME280;53640;55.838;37.184;2023-09-30T09:32:07;99282.97;;;26.06;26.67
65534;BME280;53640;55.838;37.184;2023-09-30T09:34:35;99303.69;;;26.08;26.48
65534;BME280;53640;55.838;37.184;2023-09-30T09:37:13;99304.34;;;26.14;26.22
65534;BME280;53640;55.838;37.184;2023-09-30T09:39:40;99278.09;;;26.20;26.20
65534;BME280;53640;55.838;37.184;2023-09-30T09:44:57;99278.00;;;26.60;26.23
65534;BME280;53640;55.838;37.184;2023-09-30T09:47:25;99301.34;;;26.94;25.50
65534;BME280;53640;55.838;37.184;2023-09-30T09:49:52;99270.59;;;27.16;25.13
65534;BME280;53640;55.838;37.184;2023-09-30T09:52:20;99293.03;;;27.49;24.67
65534;BME280;53640;55.838;37.184;2023-09-30T09:54:47;99272.06;;;27.13;23.98
65534;BME280;53640;55.838;37.184;2023-09-30T09:57:16;99281.66;;;27.25;24.92
65534;BME280;53640;55.838;37.184;2023-09-30T09:59:43;99268.69;;;27.37;24.07
65534;BME280;53640;55.838;37.184;2023-09-30T10:02:15;99248.25;;;27.51;24.51
65534;BME280;53640;55.838;37.184;2023-09-30T10:04:42;99258.69;;;27.83;24.07
65534;BME280;53640;55.838;37.184;2023-09-30T10:07:22;99278.00;;;27.88;23.34
65534;BME280;53640;55.838;37.184;2023-09-30T10:09:52;99273.16;;;27.68;23.80
65534;BME280;53640;55.838;37.184;2023-09-30T10:12:19;99253.91;;;27.63;23.71
65534;BME280;53640;55.838;37.184;2023-09-30T10:14:47;99286.84;;;27.82;23.52
65534;BME280;53640;55.838;37.184;2023-09-30T10:17:13;99238.94;;;27.47;23.39
65534;BME280;53640;55.838;37.184;2023-09-30T10:20:05;99274.78;;;27.22;24.26
65534;BME280;53640;55.838;37.184;2023-09-30T10:22:35;99218.31;;;26.83;23.98
65534;BME280;53640;55.838;37.184;2023-09-30T10:25:34;99273.97;;;27.22;23.73
65534;BME280;53640;55.838;37.184;2023-09-30T10:31:18;99245.38;;;25.82;24.83
65534;BME280;53640;55.838;37.184;2023-09-30T10:36:30;99244.38;;;25.07;24.99
65534;BME280;53640;55.838;37.184;2023-09-30T10:38:59;99243.09;;;24.82;25.56
65534;BME280;53640;55.838;37.184;2023-09-30T10:46:54;99255.25;;;24.36;26.61
65534;BME280;53640;55.838;37.184;2023-09-30T10:51:55;99251.72;;;25.12;26.27
65534;BME280;53640;55.838;37.184;2023-09-30T10:54:23;99252.78;;;25.56;25.66
65534;BME280;53640;55.838;37.184;2023-09-30T10:56:51;99218.38;;;25.57;25.74
65534;BME280;53640;55.838;37.184;2023-09-30T10:59:22;99242.84;;;26.12;24.72
65534;BME280;53640;55.838;37.184;2023-09-30T11:01:50;99253.66;;;26.57;24.19
65534;BME280;53640;55.838;37.184;2023-09-30T11:04:18;99199.38;;;26.85;23.94
65534;BME280;53640;55.838;37.184;2023-09-30T11:06:46;99242.72;;;27.33;23.17
65534;BME280;53640;55.838;37.184;2023-09-30T11:09:17;99208.69;;;27.36;23.04
65534;BME280;53640;55.838;37.184;2023-09-30T11:16:52;99240.00;;;27.93;22.05
65534;BME280;53640;55.838;37.184;2023-09-30T11:19:20;99229.69;;;27.63;22.52
65534;BME280;53640;55.838;37.184;2023-09-30T11:21:48;99226.44;;;27.61;22.68
65534;BME280;53640;55.838;37.184;2023-09-30T11:24:16;99207.66;;;27.79;22.79
65534;BME280;53640;55.838;37.184;2023-09-30T11:26:44;99217.72;;;28.22;22.47
65534;BME280;53640;55.838;37.184;2023-09-30T11:29:15;99183.91;;;28.11;22.69
65534;BME280;53640;55.838;37.184;2023-09-30T11:31:44;99220.31;;;28.48;21.91
65534;BME280;53640;55.838;37.184;2023-09-30T11:34:11;99208.81;;;28.50;21.68
65534;BME280;53640;55.838;37.184;2023-09-30T11:36:41;99159.91;;;28.40;22.06
65534;BME280;53640;55.838;37.184;2023-09-30T11:39:25;99198.03;;;28.81;21.31
65534;BME280;53640;55.838;37.184;2023-09-30T11:41:52;99218.88;;;29.08;21.18
65534;BME280;53640;55.838;37.184;2023-09-30T11:44:19;99189.06;;;28.88;21.36
65534;BME280;53640;55.838;37.184;2023-09-30T11:46:50;99186.41;;;28.92;21.16
65534;BME280;53640;55.838;37.184;2023-09-30T11:49:38;99195.84;;;28.99;21.00
65534;BME280;53640;55.838;37.184;2023-09-30T11:52:10;99193.44;;;29.10;21.37
65534;BME280;53640;55.838;37.184;2023-09-30T11:54:39;99177.59;;;28.90;20.92
65534;BME280;53640;55.838;37.184;2023-09-30T11:57:07;99176.47;;;29.03;21.18
65534;BME280;53640;55.838;37.184;2023-09-30T11:59:37;99172.66;;;29.32;21.24
65534;BME280;53640;55.838;37.184;2023-09-30T12:02:05;99178.59;;;29.67;20.82
65534;BME280;53640;55.838;37.184;2023-09-30T12:04:32;99166.16;;;29.77;21.09
65534;BME280;53640;55.838;37.184;2023-09-30T12:06:58;99160.94;;;29.39;21.22
65534;BME280;53640;55.838;37.184;2023-09-30T12:09:24;99154.66;;;29.17;21.48
65534;BME280;53640;55.838;37.184;2023-09-30T12:11:54;99181.47;;;28.64;21.61
65534;BME280;53640;55.838;37.184;2023-09-30T12:14:22;99185.25;;;28.26;22.33
65534;BME280;53640;55.838;37.184;2023-09-30T12:16:48;99177.25;;;28.04;22.76
65534;BME280;53640;55.838;37.184;2023-09-30T12:19:15;99177.91;;;28.01;22.96
65534;BME280;53640;55.838;37.184;2023-09-30T12:21:42;99170.19;;;28.06;23.22
65534;BME280;53640;55.838;37.184;2023-09-30T12:24:08;99149.28;;;28.00;23.07
65534;BME280;53640;55.838;37.184;2023-09-30T12:26:48;99146.81;;;27.78;23.50
65534;BME280;53640;55.838;37.184;2023-09-30T12:29:16;99169.28;;;27.94;23.45
65534;BME280;53640;55.838;37.184;2023-09-30T12:31:46;99180.03;;;27.74;23.68
65534;BME280;53640;55.838;37.184;2023-09-30T12:34:13;99174.66;;;27.39;23.90
65534;BME280;53640;55.838;37.184;2023-09-30T12:36:40;99162.72;;;27.39;23.79
65534;BME280;53640;55.838;37.184;2023-09-30T12:39:08;99165.25;;;27.61;23.91
65534;BME280;53640;55.838;37.184;2023-09-30T12:41:42;99161.09;;;27.97;24.05
65534;BME280;53640;55.838;37.184;2023-09-30T12:44:09;99168.75;;;28.00;23.56
65534;BME280;53640;55.838;37.184;2023-09-30T12:46:36;99147.69;;;27.91;23.91
65534;BME280;53640;55.838;37.184;2023-09-30T12:49:04;99168.13;;;28.16;23.34
65534;BME280;53640;55.838;37.184;2023-09-30T12:51:33;99167.41;;;28.06;23.37
65534;BME280;53640;55.838;37.184;2023-09-30T12:54:00;99139.34;;;27.91;23.45
65534;BME280;53640;55.838;37.184;2023-09-30T12:56:26;99154.31;;;28.07;23.85
65534;BME280;53640;55.838;37.184;2023-09-30T12:58:56;99116.91;;;27.96;23.44
65534;BME280;53640;55.838;37.184;2023-09-30T13:01:22;99145.66;;;27.79;23.96
65534;BME280;53640;55.838;37.184;2023-09-30T13:03:49;99156.13;;;27.52;24.05
65534;BME280;53640;55.838;37.184;2023-09-30T13:06:16;99132.81;;;27.06;24.41
65534;BME280;53640;55.838;37.184;2023-09-30T13:08:43;99132.41;;;26.69;24.67
65534;BME280;53640;55.838;37.184;2023-09-30T13:11:10;99147.34;;;26.48;24.73
65534;BME280;53640;55.838;37.184;2023-09-30T13:13:37;99129.22;;;26.07;25.65
65534;BME280;53640;55.838;37.184;2023-09-30T13:16:04;99074.09;;;25.62;25.62
65534;BME280;53640;55.838;37.184;2023-09-30T13:18:36;99134.78;;;26.07;26.19